Massey, Iowa
Current Conditions -  °F | °C
As of 12:53 PM on Friday 28 Nov 2014 (Local Time) from KDBQ Reporting Station
Clear Clear  
Wind Chill: 15°   Ceiling: Unl
Heat Index: 26°   Visibility: 10mi
Dew Point: 21°   Wind: 13mph
Humidity: 81%   Direction: 170°S
Pressure: 29.94"   Gusts: NA
Location:  42.549°N, 90.6988°W
Report Text: KDBQ 281853Z 17011KT 10SM CLR M03/M06 A2994 RMK AO2 SLP155 T10331061
Loading
Personal Weather Stations






























Interactive Weather Map New forecast layout! Learn more

10-Day Weather Forecast

Advertisements
Track Severe Weather on mobile